createdAt,value
2018-10-09T00:02:13.635Z,6.48
2018-10-09T00:04:42.848Z,6.41
2018-10-09T00:07:11.981Z,6.43
2018-10-09T00:09:41.268Z,6.54
2018-10-09T00:12:10.978Z,6.62
2018-10-09T00:14:40.188Z,6.55
2018-10-09T00:17:09.456Z,6.44
2018-10-09T00:19:38.602Z,6.50
2018-10-09T00:22:07.813Z,6.52
2018-10-09T00:24:37.116Z,6.49
2018-10-09T00:27:06.279Z,6.48
2018-10-09T00:29:35.877Z,6.51
2018-10-09T00:32:05.012Z,6.36
2018-10-09T00:34:34.168Z,6.22
2018-10-09T00:37:03.427Z,6.21
2018-10-09T00:39:33.004Z,6.17
2018-10-09T00:42:02.188Z,6.11
2018-10-09T00:44:31.439Z,6.15
2018-10-09T00:47:00.748Z,6.07
2018-10-09T00:49:30.068Z,6.08
2018-10-09T00:51:59.363Z,6.09
2018-10-09T00:54:28.576Z,6.18
2018-10-09T00:56:57.776Z,6.19
2018-10-09T00:59:26.976Z,6.17
2018-10-09T01:01:56.220Z,6.09
2018-10-09T01:04:25.409Z,6.01
2018-10-09T01:06:54.612Z,6.09
2018-10-09T01:09:23.799Z,6.15
2018-10-09T01:11:52.961Z,6.13
2018-10-09T01:14:22.125Z,6.07
2018-10-09T01:16:51.323Z,6.09
2018-10-09T01:19:20.504Z,6.13
2018-10-09T01:21:49.670Z,6.11
2018-10-09T01:24:18.928Z,6.20
2018-10-09T01:26:48.065Z,6.33
2018-10-09T01:29:17.330Z,6.26
2018-10-09T01:31:46.527Z,6.18
2018-10-09T01:34:15.746Z,6.22
2018-10-09T01:36:45.012Z,6.23
2018-10-09T01:39:14.164Z,6.30
2018-10-09T01:41:43.343Z,6.33
2018-10-09T01:44:12.547Z,6.26
2018-10-09T01:46:41.824Z,6.22
2018-10-09T01:49:10.955Z,6.24
2018-10-09T01:51:40.150Z,6.17
2018-10-09T01:54:09.304Z,6.13
2018-10-09T01:56:38.606Z,6.08
2018-10-09T01:59:07.851Z,6.02
2018-10-09T02:01:37.083Z,6.03
2018-10-09T02:04:06.240Z,6.07
2018-10-09T02:06:46.733Z,6.08
2018-10-09T02:09:15.922Z,6.01
2018-10-09T02:11:45.128Z,5.98
2018-10-09T02:14:14.414Z,5.94
2018-10-09T02:16:43.739Z,5.95
2018-10-09T02:19:12.936Z,5.93
2018-10-09T02:21:42.259Z,5.99
2018-10-09T02:24:11.488Z,5.99
2018-10-09T02:26:40.697Z,5.92
2018-10-09T02:29:09.994Z,5.95
2018-10-09T02:31:39.199Z,5.95
2018-10-09T02:34:08.453Z,5.85
2018-10-09T02:36:37.623Z,5.88
2018-10-09T02:39:09.136Z,5.98
2018-10-09T02:41:38.473Z,5.96
2018-10-09T02:44:08.092Z,5.85
2018-10-09T02:46:37.300Z,5.78
2018-10-09T02:49:06.785Z,5.88
2018-10-09T02:51:36.337Z,5.93
2018-10-09T02:54:05.791Z,5.84
2018-10-09T02:56:35.010Z,5.72
2018-10-09T02:59:04.317Z,5.72
2018-10-09T03:06:34.604Z,5.76
2018-10-09T03:09:04.803Z,5.72
2018-10-09T03:11:34.098Z,5.65
2018-10-09T03:14:03.347Z,5.74
2018-10-09T03:16:32.564Z,5.84
2018-10-09T03:19:04.789Z,5.83
2018-10-09T03:21:34.024Z,5.74
2018-10-09T03:24:03.225Z,5.75
2018-10-09T03:26:32.412Z,5.68
2018-10-09T03:29:01.610Z,5.67
2018-10-09T03:31:30.876Z,5.72
2018-10-09T03:34:00.155Z,5.78
2018-10-09T03:36:29.413Z,5.84
2018-10-09T03:38:58.615Z,5.71
2018-10-09T03:41:27.834Z,5.57
2018-10-09T03:43:57.129Z,5.57
2018-10-09T03:46:26.369Z,5.59
2018-10-09T03:48:56.640Z,5.56
2018-10-09T03:51:25.806Z,5.49
2018-10-09T03:53:54.941Z,5.54
2018-10-09T03:56:24.145Z,5.69
2018-10-09T03:58:53.451Z,5.70
2018-10-09T04:01:22.615Z,5.63
2018-10-09T04:03:51.795Z,5.64
2018-10-09T04:06:21.044Z,5.67
2018-10-09T04:08:50.370Z,5.59
2018-10-09T04:11:19.838Z,5.56
2018-10-09T04:13:49.181Z,5.38
2018-10-09T04:16:18.328Z,5.26
2018-10-09T04:18:48.132Z,5.27
2018-10-09T04:21:17.369Z,5.29
2018-10-09T04:23:46.500Z,5.35
2018-10-09T04:26:15.682Z,5.38
2018-10-09T04:28:44.930Z,5.45
2018-10-09T04:31:14.123Z,5.38
2018-10-09T04:33:43.292Z,5.31
2018-10-09T04:36:12.475Z,5.32
2018-10-09T04:38:41.768Z,5.31
2018-10-09T04:41:10.957Z,5.27
2018-10-09T04:43:40.230Z,5.29
2018-10-09T04:46:09.489Z,5.38
2018-10-09T04:48:38.674Z,5.38
2018-10-09T04:51:07.948Z,5.40
2018-10-09T04:53:37.145Z,5.42
2018-10-09T04:56:06.427Z,5.38
2018-10-09T04:58:35.612Z,5.24
2018-10-09T05:01:04.866Z,5.17
2018-10-09T05:03:34.098Z,5.14
2018-10-09T05:06:03.280Z,5.23
2018-10-09T05:08:32.546Z,5.34
2018-10-09T05:11:01.803Z,5.27
2018-10-09T05:13:30.991Z,5.32
2018-10-09T05:16:00.176Z,5.34
2018-10-09T05:18:29.395Z,5.18
2018-10-09T05:20:58.584Z,5.12
2018-10-09T05:23:27.835Z,5.22
2018-10-09T05:25:57.084Z,5.17
2018-10-09T05:28:26.244Z,5.13
2018-10-09T05:30:55.444Z,5.09
2018-10-09T05:33:24.655Z,5.02
2018-10-09T05:35:53.856Z,5.00
2018-10-09T05:38:23.103Z,5.08
2018-10-09T05:40:52.345Z,5.19
2018-10-09T05:43:21.505Z,5.29
2018-10-09T05:45:50.677Z,5.26
2018-10-09T05:48:19.892Z,5.19
2018-10-09T05:50:49.071Z,5.30
2018-10-09T05:53:18.185Z,5.37
2018-10-09T05:55:47.398Z,5.27
2018-10-09T05:58:16.630Z,5.12
2018-10-09T06:00:45.781Z,5.12
2018-10-09T06:03:14.940Z,5.22
2018-10-09T06:05:44.175Z,5.32
2018-10-09T06:08:13.308Z,5.25
2018-10-09T06:10:42.536Z,5.29
2018-10-09T06:13:11.787Z,5.38
2018-10-09T06:15:41.141Z,5.56
2018-10-09T06:18:10.248Z,5.60
2018-10-09T06:20:39.453Z,5.58
2018-10-09T06:23:08.664Z,5.58
2018-10-09T06:25:38.104Z,5.75
2018-10-09T06:28:07.795Z,5.82
2018-10-09T06:30:37.075Z,5.92
2018-10-09T06:33:06.356Z,6.05
2018-10-09T06:35:35.516Z,6.00
2018-10-09T06:38:04.723Z,6.06
2018-10-09T06:40:33.953Z,6.26
2018-10-09T06:43:03.146Z,6.38
2018-10-09T06:45:32.347Z,6.40
2018-10-09T06:48:01.564Z,6.46
2018-10-09T06:50:30.706Z,6.53
2018-10-09T06:52:59.971Z,6.51
2018-10-09T06:55:29.139Z,6.59
2018-10-09T06:57:58.312Z,6.63
2018-10-09T07:00:27.493Z,6.73
2018-10-09T07:02:56.750Z,6.85
2018-10-09T07:05:25.917Z,6.87
2018-10-09T07:07:55.151Z,6.84
2018-10-09T07:10:24.366Z,6.84
2018-10-09T07:12:53.568Z,6.89
2018-10-09T07:15:22.804Z,6.99
2018-10-09T07:17:51.923Z,7.04
2018-10-09T07:20:21.155Z,7.16
2018-10-09T07:22:50.503Z,7.11
2018-10-09T07:25:19.757Z,7.02
2018-10-09T07:27:48.974Z,7.16
2018-10-09T07:30:18.167Z,7.16
2018-10-09T07:32:47.384Z,7.19
2018-10-09T07:35:16.545Z,7.27
2018-10-09T07:37:45.761Z,7.31
2018-10-09T07:40:14.934Z,7.40
2018-10-09T07:42:44.274Z,7.51
2018-10-09T07:45:13.520Z,7.61
2018-10-09T07:47:42.732Z,7.80
2018-10-09T07:50:12.233Z,7.95
2018-10-09T07:52:41.447Z,8.10
2018-10-09T07:55:10.823Z,8.37
2018-10-09T07:57:40.083Z,8.63
2018-10-09T08:00:09.289Z,8.84
2018-10-09T08:02:38.421Z,8.97
2018-10-09T08:05:07.655Z,9.29
2018-10-09T08:07:37.103Z,9.54
2018-10-09T08:10:06.674Z,9.72
2018-10-09T08:12:35.835Z,9.84
2018-10-09T08:15:05.080Z,9.99
2018-10-09T08:17:34.298Z,10.13
2018-10-09T08:20:03.565Z,10.23
2018-10-09T08:22:32.771Z,10.30
2018-10-09T08:25:01.945Z,10.40
2018-10-09T08:27:31.100Z,10.51
2018-10-09T08:30:00.285Z,10.58
2018-10-09T08:32:29.472Z,10.67
2018-10-09T08:34:58.712Z,10.71
2018-10-09T08:37:27.872Z,10.79
2018-10-09T08:39:57.033Z,10.89
2018-10-09T08:42:26.226Z,11.06
2018-10-09T08:44:55.399Z,11.18
2018-10-09T08:47:24.592Z,11.25
2018-10-09T08:49:53.797Z,11.37
2018-10-09T08:52:23.003Z,11.48
2018-10-09T08:54:52.200Z,11.58
2018-10-09T08:57:21.397Z,11.70
2018-10-09T08:59:50.588Z,11.79
2018-10-09T09:02:19.840Z,11.91
2018-10-09T09:04:48.993Z,12.00
2018-10-09T09:07:18.204Z,12.13
2018-10-09T09:09:47.448Z,12.27
2018-10-09T09:12:16.593Z,12.39
2018-10-09T09:14:45.829Z,12.54
2018-10-09T09:17:14.988Z,12.67
2018-10-09T09:19:44.218Z,12.81
2018-10-09T09:22:13.400Z,13.02
2018-10-09T09:24:42.739Z,13.12
2018-10-09T09:27:12.058Z,13.22
2018-10-09T09:29:41.147Z,13.21
2018-10-09T09:32:10.359Z,13.31
2018-10-09T09:34:39.623Z,13.45
2018-10-09T09:37:08.875Z,13.48
2018-10-09T09:39:38.073Z,13.49
2018-10-09T09:42:07.271Z,13.47
2018-10-09T09:44:36.568Z,13.50
2018-10-09T09:47:05.809Z,13.52
2018-10-09T09:49:35.033Z,13.62
2018-10-09T09:52:04.226Z,13.78
2018-10-09T09:54:33.428Z,13.90
2018-10-09T09:57:02.632Z,13.95
2018-10-09T09:59:31.793Z,14.00
2018-10-09T10:02:01.021Z,14.11
2018-10-09T10:04:30.264Z,14.28
2018-10-09T10:06:59.452Z,14.41
2018-10-09T10:09:28.695Z,14.53
2018-10-09T10:11:57.847Z,14.66
2018-10-09T10:14:27.045Z,14.81
2018-10-09T10:16:56.249Z,14.94
2018-10-09T10:19:25.426Z,15.00
2018-10-09T10:21:55.001Z,14.98
2018-10-09T10:24:24.246Z,15.09
2018-10-09T10:26:53.463Z,15.15
2018-10-09T10:29:22.729Z,15.34
2018-10-09T10:31:52.085Z,15.34
2018-10-09T10:34:21.300Z,15.38
2018-10-09T10:36:50.643Z,15.42
2018-10-09T10:39:19.678Z,15.35
2018-10-09T10:41:48.874Z,15.35
2018-10-09T10:44:18.086Z,15.48
2018-10-09T10:46:47.277Z,15.56
2018-10-09T10:49:16.480Z,15.74
2018-10-09T10:51:45.603Z,15.86
2018-10-09T10:54:14.747Z,15.99
2018-10-09T10:56:43.961Z,16.03
2018-10-09T10:59:13.185Z,16.14
2018-10-09T11:01:42.509Z,16.14
2018-10-09T11:04:11.652Z,16.38
2018-10-09T11:06:40.804Z,16.50
2018-10-09T11:09:10.927Z,16.58
2018-10-09T11:11:40.098Z,16.70
2018-10-09T11:14:09.318Z,16.79
2018-10-09T11:16:38.491Z,16.62
2018-10-09T11:19:07.721Z,16.56
2018-10-09T11:21:36.918Z,16.49
2018-10-09T11:24:06.122Z,16.60
2018-10-09T11:26:35.308Z,16.64
2018-10-09T11:29:04.564Z,16.79
2018-10-09T11:31:33.818Z,16.89
2018-10-09T11:34:02.996Z,16.88
2018-10-09T11:36:32.154Z,16.95
2018-10-09T11:39:01.364Z,17.20
2018-10-09T11:41:33.622Z,17.41
2018-10-09T11:44:03.701Z,17.55
2018-10-09T11:46:33.966Z,17.79
2018-10-09T11:49:03.208Z,17.92
2018-10-09T11:51:32.375Z,17.97
2018-10-09T11:54:01.516Z,18.09
2018-10-09T11:56:30.681Z,18.08
2018-10-09T11:58:59.913Z,17.98
2018-10-09T12:01:29.085Z,17.93
2018-10-09T12:03:58.281Z,18.21
2018-10-09T12:06:28.488Z,18.22
2018-10-09T12:08:57.649Z,18.21
2018-10-09T12:11:26.797Z,18.13
2018-10-09T12:13:56.093Z,18.14
2018-10-09T12:16:25.348Z,18.12
2018-10-09T12:18:54.513Z,18.19
2018-10-09T12:21:23.724Z,18.26
2018-10-09T12:23:52.845Z,18.31
2018-10-09T12:26:22.041Z,18.37
2018-10-09T12:28:51.226Z,18.38
2018-10-09T12:31:20.437Z,18.45
2018-10-09T12:33:49.577Z,18.57
2018-10-09T12:36:18.751Z,18.68
2018-10-09T12:38:47.884Z,18.78
2018-10-09T12:41:17.071Z,18.75
2018-10-09T12:43:46.277Z,18.66
2018-10-09T12:46:15.459Z,18.70
2018-10-09T12:48:44.677Z,18.87
2018-10-09T12:51:13.843Z,18.91
2018-10-09T12:53:42.965Z,18.80
2018-10-09T12:56:12.135Z,18.88
2018-10-09T12:58:41.385Z,18.93
2018-10-09T13:01:10.492Z,19.02
2018-10-09T13:03:39.678Z,18.99
2018-10-09T13:06:08.848Z,19.00
2018-10-09T13:08:38.219Z,18.91
2018-10-09T13:11:07.893Z,19.01
2018-10-09T13:13:37.083Z,18.97
2018-10-09T13:16:06.287Z,19.08
2018-10-09T13:18:35.511Z,19.10
2018-10-09T13:21:04.802Z,19.20
2018-10-09T13:23:33.929Z,19.38
2018-10-09T13:26:03.110Z,19.49
2018-10-09T13:28:32.291Z,19.51
2018-10-09T13:31:01.675Z,19.64
2018-10-09T13:33:30.897Z,19.52
2018-10-09T13:36:00.084Z,19.45
2018-10-09T13:38:29.274Z,19.42
2018-10-09T13:40:58.492Z,19.44
2018-10-09T13:43:27.762Z,19.52
2018-10-09T13:45:56.958Z,19.45
2018-10-09T13:48:26.199Z,19.45
2018-10-09T13:50:55.465Z,19.33
2018-10-09T13:53:24.634Z,19.25
2018-10-09T13:55:53.834Z,19.16
2018-10-09T13:58:23.121Z,18.97
2018-10-09T14:00:52.262Z,18.77
2018-10-09T14:03:21.527Z,18.64
2018-10-09T14:05:50.660Z,18.76
2018-10-09T14:08:20.221Z,18.74
2018-10-09T14:10:49.399Z,18.74
2018-10-09T14:13:18.600Z,18.66
2018-10-09T14:15:47.856Z,18.67
2018-10-09T14:18:17.065Z,18.57
2018-10-09T14:20:46.420Z,18.46
2018-10-09T14:23:16.760Z,18.54
2018-10-09T14:25:47.114Z,18.46
2018-10-09T14:28:20.364Z,18.46
2018-10-09T14:30:49.628Z,18.40
2018-10-09T14:33:24.206Z,18.42
2018-10-09T14:36:01.553Z,18.25
2018-10-09T14:38:31.360Z,18.15
2018-10-09T14:41:00.593Z,18.09
2018-10-09T14:43:29.788Z,18.02
2018-10-09T14:45:59.009Z,17.96
2018-10-09T14:48:29.420Z,17.82
2018-10-09T14:50:58.651Z,17.73
2018-10-09T14:58:26.256Z,17.56
2018-10-09T15:00:55.930Z,17.55
2018-10-09T15:03:25.583Z,17.60
2018-10-09T15:05:55.065Z,17.55
2018-10-09T15:08:25.315Z,17.36
2018-10-09T15:10:55.200Z,17.29
2018-10-09T15:13:24.495Z,17.16
2018-10-09T15:15:53.994Z,16.99
2018-10-09T15:18:23.547Z,16.97
2018-10-09T15:20:52.985Z,16.94
2018-10-09T15:23:23.571Z,17.01
2018-10-09T15:25:53.170Z,16.88
2018-10-09T15:28:22.860Z,16.83
2018-10-09T15:33:30.881Z,16.56
2018-10-09T15:36:00.086Z,16.47
2018-10-09T15:38:29.345Z,16.50
2018-10-09T15:40:58.831Z,16.44
2018-10-09T15:43:28.131Z,16.31
2018-10-09T15:45:57.421Z,16.30
2018-10-09T15:48:26.721Z,16.25
2018-10-09T15:50:56.161Z,16.03
2018-10-09T15:53:25.926Z,16.04
2018-10-09T15:55:55.223Z,15.96
2018-10-09T15:58:24.958Z,15.94
2018-10-09T16:00:54.333Z,15.90
2018-10-09T16:06:07.068Z,15.81
2018-10-09T16:08:36.245Z,15.80
2018-10-09T16:11:05.539Z,15.69
2018-10-09T16:13:34.769Z,15.58
2018-10-09T16:16:03.936Z,15.50
2018-10-09T16:18:33.202Z,15.36
2018-10-09T16:21:03.691Z,15.25
2018-10-09T16:23:34.777Z,15.14
2018-10-09T16:26:04.098Z,15.05
2018-10-09T16:28:33.601Z,14.99
2018-10-09T16:31:02.946Z,14.92
2018-10-09T16:33:32.146Z,14.81
2018-10-09T16:36:07.355Z,14.68
2018-10-09T16:38:36.588Z,14.60
2018-10-09T16:41:07.098Z,14.49
2018-10-09T16:43:36.395Z,14.41
2018-10-09T16:46:06.254Z,14.35
2018-10-09T16:48:35.581Z,14.35
2018-10-09T16:51:04.918Z,14.36
2018-10-09T16:53:34.272Z,14.33
2018-10-09T16:56:03.464Z,14.22
2018-10-09T16:58:32.712Z,14.12
2018-10-09T17:01:02.059Z,13.94
2018-10-09T17:03:31.391Z,13.81
2018-10-09T17:06:00.737Z,13.77
2018-10-09T17:08:29.989Z,13.75
2018-10-09T17:10:59.312Z,13.69
2018-10-09T17:13:28.590Z,13.66
2018-10-09T17:15:57.868Z,13.52
2018-10-09T17:18:28.162Z,13.51
2018-10-09T17:20:57.409Z,13.55
2018-10-09T17:23:26.628Z,13.49
2018-10-09T17:25:55.862Z,13.29
2018-10-09T17:28:25.110Z,13.17
2018-10-09T17:30:54.369Z,13.02
2018-10-09T17:33:23.738Z,12.94
2018-10-09T17:35:52.945Z,12.95
2018-10-09T17:38:22.194Z,12.96
2018-10-09T17:40:51.460Z,12.87
2018-10-09T17:43:20.661Z,12.81
2018-10-09T17:45:49.932Z,12.74
2018-10-09T17:48:19.216Z,12.68
2018-10-09T17:50:48.369Z,12.66
2018-10-09T17:53:17.639Z,12.66
2018-10-09T17:55:46.838Z,12.58
2018-10-09T17:58:15.996Z,12.55
2018-10-09T18:00:45.245Z,12.48
2018-10-09T18:03:14.599Z,12.37
2018-10-09T18:05:43.756Z,12.29
2018-10-09T18:08:13.132Z,12.20
2018-10-09T18:10:42.556Z,12.20
2018-10-09T18:13:12.716Z,12.19
2018-10-09T18:15:42.053Z,12.10
2018-10-09T18:18:11.228Z,12.00
2018-10-09T18:20:40.405Z,11.94
2018-10-09T18:23:09.653Z,11.92
2018-10-09T18:25:38.811Z,11.92
2018-10-09T18:28:08.272Z,11.81
2018-10-09T18:30:37.458Z,11.75
2018-10-09T18:33:06.987Z,11.71
2018-10-09T18:35:37.184Z,11.67
2018-10-09T18:38:06.543Z,11.59
2018-10-09T18:40:35.748Z,11.49
2018-10-09T18:43:04.970Z,11.47
2018-10-09T18:45:34.250Z,11.48
2018-10-09T18:48:03.448Z,11.42
2018-10-09T18:50:32.632Z,11.43
2018-10-09T18:53:01.789Z,11.44
2018-10-09T18:55:31.020Z,11.42
2018-10-09T18:58:00.298Z,11.35
2018-10-09T19:00:29.602Z,11.17
2018-10-09T19:02:58.835Z,11.07
2018-10-09T19:05:28.003Z,11.09
2018-10-09T19:07:57.131Z,11.19
2018-10-09T19:10:26.337Z,11.19
2018-10-09T19:12:55.812Z,11.18
2018-10-09T19:15:25.114Z,11.13
2018-10-09T19:17:54.331Z,11.08
2018-10-09T19:20:23.599Z,10.92
2018-10-09T19:22:52.760Z,10.69
2018-10-09T19:25:22.013Z,10.59
2018-10-09T19:27:51.219Z,10.45
2018-10-09T19:30:20.424Z,10.34
2018-10-09T19:32:49.597Z,10.29
2018-10-09T19:35:18.928Z,10.24
2018-10-09T19:37:48.092Z,10.26
2018-10-09T19:40:17.300Z,10.17
2018-10-09T19:42:46.641Z,10.18
2018-10-09T19:45:15.906Z,10.20
2018-10-09T19:47:45.129Z,10.09
2018-10-09T19:50:14.311Z,10.02
2018-10-09T19:52:43.515Z,9.96
2018-10-09T19:55:12.667Z,9.94
2018-10-09T19:57:41.988Z,9.98
2018-10-09T20:00:11.167Z,9.99
2018-10-09T20:02:42.390Z,9.97
2018-10-09T20:05:11.606Z,9.99
2018-10-09T20:07:40.915Z,9.84
2018-10-09T20:10:10.408Z,9.65
2018-10-09T20:12:39.575Z,9.58
2018-10-09T20:15:08.824Z,9.59
2018-10-09T20:17:38.134Z,9.58
2018-10-09T20:20:07.359Z,9.51
2018-10-09T20:22:36.680Z,9.52
2018-10-09T20:25:05.926Z,9.49
2018-10-09T20:27:35.899Z,9.35
2018-10-09T20:30:05.195Z,9.22
2018-10-09T20:32:34.540Z,9.18
2018-10-09T20:35:03.764Z,9.15
2018-10-09T20:37:32.958Z,9.07
2018-10-09T20:40:02.158Z,9.01
2018-10-09T20:42:31.384Z,8.98
2018-10-09T20:45:00.572Z,8.89
2018-10-09T20:47:35.056Z,8.92
2018-10-09T20:50:04.341Z,8.93
2018-10-09T20:52:33.489Z,8.89
2018-10-09T20:55:02.673Z,8.92
2018-10-09T20:57:31.905Z,8.96
2018-10-09T21:00:01.151Z,8.93
2018-10-09T21:02:30.330Z,8.92
2018-10-09T21:04:59.558Z,8.91
2018-10-09T21:07:28.776Z,8.76
2018-10-09T21:09:58.952Z,8.73
2018-10-09T21:12:28.140Z,8.65
2018-10-09T21:14:57.261Z,8.60
2018-10-09T21:17:26.521Z,8.52
2018-10-09T21:19:55.661Z,8.47
2018-10-09T21:22:24.903Z,8.38
2018-10-09T21:24:54.097Z,8.35
2018-10-09T21:27:23.204Z,8.33
2018-10-09T21:29:52.417Z,8.25
2018-10-09T21:32:21.567Z,8.33
2018-10-09T21:34:50.708Z,8.37
2018-10-09T21:37:19.832Z,8.36
2018-10-09T21:39:48.961Z,8.19
2018-10-09T21:42:18.074Z,8.15
2018-10-09T21:44:47.344Z,8.17
2018-10-09T21:47:17.645Z,8.11
2018-10-09T21:49:46.763Z,8.01
2018-10-09T21:52:15.940Z,7.90
2018-10-09T21:54:45.227Z,7.81
2018-10-09T21:57:14.476Z,7.75
2018-10-09T21:59:43.621Z,7.76
2018-10-09T22:02:12.796Z,7.76
2018-10-09T22:04:42.050Z,7.86
2018-10-09T22:07:19.281Z,7.76
2018-10-09T22:09:50.792Z,7.63
2018-10-09T22:12:20.125Z,7.64
2018-10-09T22:14:49.304Z,7.69
2018-10-09T22:17:18.536Z,7.67
2018-10-09T22:19:47.685Z,7.61
2018-10-09T22:22:16.891Z,7.52
2018-10-09T22:24:46.124Z,7.52
2018-10-09T22:27:15.290Z,7.47
2018-10-09T22:29:44.511Z,7.51
2018-10-09T22:32:13.740Z,7.49
2018-10-09T22:34:42.978Z,7.51
2018-10-09T22:37:12.319Z,7.44
2018-10-09T22:39:41.824Z,7.52
2018-10-09T22:42:11.111Z,7.44
2018-10-09T22:44:40.354Z,7.47
2018-10-09T22:47:09.633Z,7.41
2018-10-09T22:49:38.842Z,7.49
2018-10-09T22:52:08.191Z,7.28
2018-10-09T22:54:37.345Z,7.31
2018-10-09T22:57:06.606Z,7.22
2018-10-09T22:59:35.807Z,7.18
2018-10-09T23:02:05.096Z,7.09
2018-10-09T23:04:34.382Z,7.02
2018-10-09T23:07:03.534Z,6.97
2018-10-09T23:09:32.763Z,6.98
2018-10-09T23:12:01.904Z,7.00
2018-10-09T23:14:31.106Z,7.03
2018-10-09T23:17:00.383Z,7.15
2018-10-09T23:19:29.515Z,7.18
2018-10-09T23:21:58.835Z,7.16
2018-10-09T23:24:27.979Z,7.09
2018-10-09T23:26:57.198Z,6.98
2018-10-09T23:29:26.367Z,6.88
2018-10-09T23:31:55.520Z,6.78
2018-10-09T23:34:24.700Z,6.83
2018-10-09T23:36:53.831Z,6.77
2018-10-09T23:39:23.046Z,6.87
2018-10-09T23:41:52.290Z,6.83
2018-10-09T23:44:21.474Z,6.74
2018-10-09T23:46:51.433Z,6.77
2018-10-09T23:49:20.616Z,6.79
2018-10-09T23:51:49.908Z,6.89
2018-10-09T23:54:19.101Z,6.89
2018-10-09T23:56:48.472Z,6.81
2018-10-09T23:59:17.644Z,6.68
